createdAt,value
2022-07-26T00:04:28.350Z,1.35
2022-07-26T00:09:30.127Z,1.10
2022-07-26T00:14:31.885Z,1.10
2022-07-26T00:19:33.619Z,0.98
2022-07-26T00:24:35.672Z,1.33
2022-07-26T00:29:37.769Z,1.30
2022-07-26T00:34:39.603Z,1.20
2022-07-26T00:39:41.440Z,0.90
2022-07-26T00:44:45.572Z,0.82
2022-07-26T00:49:47.331Z,1.10
2022-07-26T00:54:49.235Z,1.30
2022-07-26T00:59:51.478Z,1.30
2022-07-26T01:04:53.275Z,0.95
2022-07-26T01:09:55.314Z,1.08
2022-07-26T01:14:57.043Z,1.17
2022-07-26T01:19:58.817Z,0.90
2022-07-26T01:25:00.603Z,1.17
2022-07-26T01:30:02.359Z,1.27
2022-07-26T01:35:05.361Z,1.02
2022-07-26T01:40:07.807Z,1.10
2022-07-26T01:45:12.585Z,1.10
2022-07-26T01:50:14.372Z,1.13
2022-07-26T01:55:16.283Z,1.20
2022-07-26T02:00:18.210Z,1.00
2022-07-26T02:05:19.944Z,1.15
2022-07-26T02:10:21.780Z,1.00
2022-07-26T02:15:23.657Z,1.10
2022-07-26T02:20:25.463Z,1.10
2022-07-26T02:25:27.633Z,1.30
2022-07-26T02:30:29.452Z,1.55
2022-07-26T02:35:31.994Z,1.10
2022-07-26T02:40:34.765Z,1.42
2022-07-26T02:45:36.570Z,1.30
2022-07-26T02:50:38.936Z,2.08
2022-07-26T02:55:41.145Z,1.50
2022-07-26T03:00:42.963Z,1.60
2022-07-26T03:05:44.705Z,1.80
2022-07-26T03:10:46.756Z,1.70
2022-07-26T03:15:48.569Z,1.50
2022-07-26T03:20:50.846Z,1.70
2022-07-26T03:25:52.872Z,1.58
2022-07-26T03:30:54.633Z,1.50
2022-07-26T03:35:57.040Z,1.73
2022-07-26T03:40:59.221Z,1.98
2022-07-26T03:46:01.004Z,1.50
2022-07-26T03:51:02.867Z,1.70
2022-07-26T03:56:23.446Z,1.70
2022-07-26T04:01:25.417Z,1.50
2022-07-26T04:06:27.732Z,1.70
2022-07-26T04:11:29.625Z,1.70
2022-07-26T04:16:31.998Z,1.58
2022-07-26T04:21:33.996Z,1.63
2022-07-26T04:26:35.868Z,1.70
2022-07-26T04:31:37.585Z,1.60
2022-07-26T04:36:39.432Z,1.40
2022-07-26T04:41:41.122Z,1.70
2022-07-26T04:46:45.273Z,1.83
2022-07-26T04:51:47.770Z,2.50
2022-07-26T04:56:50.102Z,1.65
2022-07-26T05:01:51.910Z,1.52
2022-07-26T05:06:53.865Z,1.63
2022-07-26T05:11:55.770Z,1.95
2022-07-26T05:16:57.532Z,1.90
2022-07-26T05:22:10.602Z,1.65
2022-07-26T05:27:12.309Z,1.85
2022-07-26T05:32:14.088Z,2.00
2022-07-26T05:37:16.160Z,2.05
2022-07-26T05:42:17.819Z,2.22
2022-07-26T05:47:19.623Z,1.95
2022-07-26T05:52:23.565Z,2.10
2022-07-26T05:57:25.490Z,2.58
2022-07-26T06:02:27.260Z,2.20
2022-07-26T06:07:29.152Z,2.97
2022-07-26T06:12:30.942Z,2.40
2022-07-26T06:17:33.052Z,2.47
2022-07-26T06:22:34.797Z,3.20
2022-07-26T06:27:36.562Z,3.53
2022-07-26T06:32:38.377Z,3.22
2022-07-26T06:37:42.168Z,3.15
2022-07-26T06:42:43.857Z,2.80
2022-07-26T06:47:45.782Z,3.00
2022-07-26T06:52:47.961Z,3.08
2022-07-26T06:57:50.648Z,3.10
2022-07-26T07:02:52.561Z,2.92
2022-07-26T07:07:54.365Z,2.88
2022-07-26T07:12:56.073Z,2.90
2022-07-26T07:17:57.777Z,3.33
2022-07-26T07:22:59.597Z,3.50
2022-07-26T07:28:01.449Z,3.42
2022-07-26T07:33:03.587Z,3.15
2022-07-26T07:38:05.506Z,3.50
2022-07-26T07:43:07.674Z,3.65
2022-07-26T07:48:09.465Z,3.58
2022-07-26T07:53:11.235Z,4.05
2022-07-26T07:58:13.425Z,3.90
2022-07-26T08:03:18.755Z,4.15
2022-07-26T08:08:22.021Z,4.07
2022-07-26T08:13:24.705Z,4.25
2022-07-26T08:18:26.507Z,4.25
2022-07-26T08:23:29.434Z,4.40
2022-07-26T08:28:46.674Z,4.90
2022-07-26T08:33:49.406Z,4.43
2022-07-26T08:38:51.291Z,4.63
2022-07-26T08:43:53.936Z,4.57
2022-07-26T08:48:56.833Z,4.43
2022-07-26T08:54:06.017Z,4.18
2022-07-26T08:59:20.917Z,3.80
2022-07-26T09:04:44.525Z,3.67
2022-07-26T09:10:01.764Z,3.97
2022-07-26T09:15:06.534Z,3.30
2022-07-26T09:20:09.421Z,4.68
2022-07-26T09:25:22.037Z,3.88
2022-07-26T09:30:23.797Z,4.18
2022-07-26T09:40:51.466Z,4.30
2022-07-26T09:46:05.459Z,4.30
2022-07-26T09:51:07.808Z,4.17
2022-07-26T09:56:09.577Z,4.75
2022-07-26T10:01:11.299Z,4.90
2022-07-26T10:06:13.094Z,5.03
2022-07-26T10:11:15.326Z,5.25
2022-07-26T10:16:32.520Z,5.20
2022-07-26T10:21:35.198Z,5.78
2022-07-26T10:26:38.031Z,5.20
2022-07-26T10:31:40.001Z,7.53
2022-07-26T10:36:41.810Z,8.27
2022-07-26T10:41:56.818Z,8.38
2022-07-26T10:47:10.082Z,7.80
2022-07-26T10:52:13.447Z,9.23
2022-07-26T10:57:15.181Z,8.38
2022-07-26T11:02:26.345Z,8.35
2022-07-26T11:07:29.417Z,8.00
2022-07-26T11:12:31.154Z,7.25
2022-07-26T11:17:32.984Z,6.20
2022-07-26T11:22:35.811Z,6.05
2022-07-26T11:27:37.643Z,4.43
2022-07-26T11:32:39.452Z,3.90
2022-07-26T11:38:01.676Z,4.00
2022-07-26T11:43:11.215Z,4.00
2022-07-26T11:48:13.156Z,3.20
2022-07-26T11:53:22.420Z,3.00
2022-07-26T11:58:24.369Z,3.05
2022-07-26T12:03:26.050Z,2.75
2022-07-26T12:08:40.018Z,2.72
2022-07-26T12:13:59.237Z,3.10
2022-07-26T12:19:01.071Z,2.97
2022-07-26T12:24:02.958Z,2.75
2022-07-26T12:29:24.528Z,3.70
2022-07-26T12:34:26.319Z,4.38
2022-07-26T12:39:28.539Z,3.40
2022-07-26T12:44:30.239Z,2.75
2022-07-26T12:49:32.163Z,2.20
2022-07-26T12:54:33.907Z,2.40
2022-07-26T12:59:39.556Z,2.72
2022-07-26T13:04:44.476Z,3.08
2022-07-26T13:09:47.175Z,2.80
2022-07-26T13:14:50.138Z,3.60
2022-07-26T13:19:51.838Z,3.45
2022-07-26T13:24:53.632Z,2.63
2022-07-26T13:29:55.763Z,2.78
2022-07-26T13:34:57.494Z,2.70
2022-07-26T13:39:59.314Z,2.40
2022-07-26T13:45:01.036Z,2.58
2022-07-26T13:50:02.930Z,2.80
2022-07-26T13:55:05.039Z,2.72
2022-07-26T14:00:09.223Z,2.78
2022-07-26T14:05:11.003Z,2.80
2022-07-26T14:10:12.785Z,2.40
2022-07-26T14:15:19.733Z,1.95
2022-07-26T14:20:24.477Z,1.90
2022-07-26T14:25:27.232Z,2.63
2022-07-26T14:30:28.988Z,2.65
2022-07-26T14:35:30.812Z,2.67
2022-07-26T14:40:32.550Z,2.20
2022-07-26T14:45:34.362Z,2.42
2022-07-26T14:50:59.751Z,2.35
2022-07-26T14:55:57.959Z,1.95
2022-07-26T15:00:59.812Z,1.80
2022-07-26T15:06:01.540Z,2.42
2022-07-26T15:11:05.461Z,2.20
2022-07-26T15:16:07.422Z,2.30
2022-07-26T15:21:09.219Z,2.63
2022-07-26T15:26:10.933Z,2.30
2022-07-26T15:31:12.712Z,2.30
2022-07-26T15:36:14.506Z,2.50
2022-07-26T15:41:16.341Z,2.60
2022-07-26T15:46:19.561Z,2.40
2022-07-26T15:51:23.373Z,1.70
2022-07-26T15:56:25.113Z,2.00
2022-07-26T16:01:27.743Z,1.50
2022-07-26T16:06:29.517Z,1.45
2022-07-26T16:11:31.664Z,1.80
2022-07-26T16:16:34.491Z,1.80
2022-07-26T16:21:37.048Z,1.70
2022-07-26T16:26:38.925Z,1.67
2022-07-26T16:31:43.714Z,1.70
2022-07-26T16:36:45.592Z,2.00
2022-07-26T16:41:47.310Z,1.80
2022-07-26T16:46:49.228Z,2.25
2022-07-26T16:51:51.152Z,1.80
2022-07-26T16:56:53.185Z,2.03
2022-07-26T17:01:55.486Z,2.33
2022-07-26T17:07:22.649Z,2.53
2022-07-26T17:12:21.140Z,2.88
2022-07-26T17:17:25.640Z,1.83
2022-07-26T17:22:27.469Z,1.80
2022-07-26T17:27:29.197Z,2.28
2022-07-26T17:32:31.093Z,2.20
2022-07-26T17:37:34.909Z,1.80
2022-07-26T17:42:37.674Z,1.70
2022-07-26T17:47:39.365Z,1.63
2022-07-26T17:52:41.768Z,1.60
2022-07-26T17:57:43.698Z,1.42
2022-07-26T18:02:45.885Z,1.48
2022-07-26T18:07:47.777Z,1.40
2022-07-26T18:12:49.541Z,1.23
2022-07-26T18:17:51.335Z,1.38
2022-07-26T18:22:54.534Z,1.27
2022-07-26T18:27:56.330Z,1.20
2022-07-26T18:33:01.262Z,1.30
2022-07-26T18:38:03.234Z,1.13
2022-07-26T18:43:05.270Z,1.30
2022-07-26T18:48:07.125Z,1.00
2022-07-26T18:53:08.930Z,1.48
2022-07-26T18:58:10.768Z,1.50
2022-07-26T19:03:12.499Z,1.35
2022-07-26T19:08:14.378Z,2.03
2022-07-26T19:13:16.116Z,1.70
2022-07-26T19:18:17.950Z,1.52
2022-07-26T19:23:19.731Z,1.58
2022-07-26T19:28:21.496Z,1.40
2022-07-26T19:33:23.234Z,1.30
2022-07-26T19:38:25.431Z,1.65
2022-07-26T19:43:27.768Z,1.50
2022-07-26T19:48:29.534Z,1.48
2022-07-26T19:53:31.337Z,1.70
2022-07-26T19:58:33.158Z,1.63
2022-07-26T20:03:34.965Z,1.80
2022-07-26T20:08:36.728Z,1.90
2022-07-26T20:13:38.713Z,1.80
2022-07-26T20:18:40.425Z,1.95
2022-07-26T20:23:42.246Z,1.67
2022-07-26T20:28:44.121Z,1.65
2022-07-26T20:33:46.020Z,1.60
2022-07-26T20:38:51.481Z,1.40
2022-07-26T20:43:53.888Z,1.40
2022-07-26T20:48:59.029Z,1.30
2022-07-26T20:54:01.100Z,1.40
2022-07-26T20:59:03.355Z,1.65
2022-07-26T21:04:05.510Z,1.80
2022-07-26T21:09:09.857Z,1.50
2022-07-26T21:14:14.056Z,1.60
2022-07-26T21:19:16.207Z,1.30
2022-07-26T21:24:18.859Z,1.63
2022-07-26T21:29:20.802Z,1.65
2022-07-26T21:34:24.797Z,1.80
2022-07-26T21:39:26.538Z,2.00
2022-07-26T21:44:28.230Z,1.58
2022-07-26T21:49:29.992Z,1.65
2022-07-26T21:54:31.762Z,1.80
2022-07-26T21:59:33.877Z,1.40
2022-07-26T22:04:35.656Z,1.70
2022-07-26T22:09:37.609Z,1.90
2022-07-26T22:14:39.459Z,1.67
2022-07-26T22:19:41.238Z,1.60
2022-07-26T22:24:42.960Z,1.60
2022-07-26T22:29:44.702Z,1.67
2022-07-26T22:34:46.395Z,1.83
2022-07-26T22:39:48.278Z,1.67
2022-07-26T22:44:50.048Z,1.70
2022-07-26T22:49:51.877Z,1.75
2022-07-26T22:54:53.626Z,2.20
2022-07-26T22:59:55.401Z,1.92
2022-07-26T23:04:59.130Z,2.00
2022-07-26T23:10:01.779Z,2.30
2022-07-26T23:15:05.058Z,1.77
2022-07-26T23:20:09.135Z,2.50
2022-07-26T23:25:10.910Z,1.80
2022-07-26T23:30:12.740Z,1.90
2022-07-26T23:35:14.463Z,2.08
2022-07-26T23:40:16.281Z,1.73
2022-07-26T23:45:18.276Z,2.00
2022-07-26T23:50:24.115Z,1.80
2022-07-26T23:55:25.934Z,2.00
